createdAt,value
2018-09-21T00:00:03.537Z,36.8
2018-09-21T00:05:03.523Z,30.11
2018-09-21T00:10:03.529Z,22.75
2018-09-21T00:15:03.534Z,23.09
2018-09-21T00:20:03.529Z,18.42
2018-09-21T00:25:03.539Z,17.33
2018-09-21T00:30:03.561Z,18.53
2018-09-21T00:35:03.547Z,17.31
2018-09-21T00:40:03.567Z,19.51
2018-09-21T00:45:03.557Z,18.15
2018-09-21T00:50:03.563Z,20.75
2018-09-21T00:55:03.559Z,19.79
2018-09-21T01:00:03.573Z,22.22
2018-09-21T01:05:03.557Z,22.9
2018-09-21T01:10:03.572Z,26.43
2018-09-21T01:15:03.564Z,27.95
2018-09-21T01:20:03.561Z,31.54
2018-09-21T01:25:03.584Z,30.39
2018-09-21T01:30:03.576Z,33.01
2018-09-21T01:35:03.585Z,39.25
2018-09-21T01:40:03.581Z,39.49
2018-09-21T01:45:03.595Z,42.47
2018-09-21T01:50:03.585Z,44.91
2018-09-21T01:55:03.601Z,44.82
2018-09-21T02:00:03.600Z,45.38
2018-09-21T02:05:03.602Z,48.16
2018-09-21T02:10:03.597Z,47.3
2018-09-21T02:15:03.705Z,49.55
2018-09-21T02:20:03.599Z,53.86
2018-09-21T02:25:03.612Z,57.35
2018-09-21T02:30:03.617Z,58.4
2018-09-21T02:35:03.618Z,60.17
2018-09-21T02:40:03.627Z,64.23
2018-09-21T02:45:03.651Z,63.32
2018-09-21T02:50:03.632Z,63.38
2018-09-21T02:55:03.612Z,64.95
2018-09-21T03:00:03.636Z,69.97
2018-09-21T03:05:03.635Z,77.04
2018-09-21T03:10:03.641Z,80.43
2018-09-21T03:15:03.631Z,94.23
2018-09-21T03:20:03.627Z,95.95
2018-09-21T03:25:03.632Z,94.7
2018-09-21T03:30:03.653Z,95
2018-09-21T03:35:03.714Z,95.57
2018-09-21T03:40:03.659Z,93.94
2018-09-21T03:45:03.643Z,94.18
2018-09-21T03:50:03.674Z,90.07
2018-09-21T03:55:03.645Z,90.13
2018-09-21T04:00:03.664Z,92.21
2018-09-21T04:05:03.646Z,92.46
2018-09-21T04:10:03.652Z,89.33
2018-09-21T04:15:03.668Z,87.62
2018-09-21T04:20:03.668Z,86.64
2018-09-21T04:25:03.662Z,83.08
2018-09-21T04:30:03.675Z,85.19
2018-09-21T04:35:03.662Z,85.05
2018-09-21T04:40:03.672Z,83.47
2018-09-21T04:45:03.686Z,85.4
2018-09-21T04:50:03.676Z,85.23
2018-09-21T04:55:03.680Z,82.79
2018-09-21T05:00:03.681Z,78.32
2018-09-21T05:05:03.685Z,72.56
2018-09-21T05:10:03.684Z,68.03
2018-09-21T05:15:03.713Z,66.8
2018-09-21T05:20:03.700Z,62.76
2018-09-21T05:25:03.694Z,58.17
2018-09-21T05:30:03.719Z,59.47
2018-09-21T05:35:03.820Z,58.49
2018-09-21T05:40:03.699Z,59.85
2018-09-21T05:45:03.727Z,58.95
2018-09-21T05:50:03.707Z,60.75
2018-09-21T05:55:03.709Z,61.86
2018-09-21T06:00:03.732Z,60.03
2018-09-21T06:05:03.722Z,61.63
2018-09-21T06:10:03.720Z,61.05
2018-09-21T06:15:03.745Z,55.68
2018-09-21T06:20:12.610Z,50.08
2018-09-21T06:25:03.731Z,51.25
2018-09-21T06:30:03.743Z,43.72
2018-09-21T06:35:03.736Z,35.45
2018-09-21T06:40:03.733Z,29.43
2018-09-21T06:45:03.746Z,19.73
2018-09-21T06:50:03.740Z,13.81
2018-09-21T06:55:03.746Z,8.68
2018-09-21T07:00:03.894Z,0.14
2018-09-21T07:05:03.745Z,0.1
2018-09-21T07:10:03.894Z,-4.31
2018-09-21T07:15:03.753Z,-6
2018-09-21T07:20:03.753Z,-6
2018-09-21T07:25:03.753Z,-6
2018-09-21T07:30:03.772Z,-6
2018-09-21T07:35:03.767Z,-6
2018-09-21T07:40:03.771Z,-6
2018-09-21T07:45:03.773Z,-6
2018-09-21T07:50:03.770Z,-6
2018-09-21T07:55:03.776Z,-6
2018-09-21T08:00:03.801Z,-6
2018-09-21T08:05:03.930Z,-6
2018-09-21T08:10:03.785Z,-6
2018-09-21T08:15:03.817Z,-6
2018-09-21T08:20:03.795Z,-6
2018-09-21T08:25:03.921Z,-6
2018-09-21T08:30:03.815Z,-6
2018-09-21T08:35:03.797Z,-6
2018-09-21T08:40:03.800Z,-6
2018-09-21T08:45:03.822Z,-6
2018-09-21T08:50:03.805Z,-6
2018-09-21T08:55:04.074Z,-6
2018-09-21T09:00:03.822Z,-6
2018-09-21T09:05:03.819Z,-6
2018-09-21T09:10:03.816Z,-6
2018-09-21T09:15:03.825Z,-6
2018-09-21T09:20:03.851Z,-6
2018-09-21T09:25:04.037Z,-6
2018-09-21T09:30:03.956Z,-6
2018-09-21T09:35:03.842Z,-6
2018-09-21T09:40:03.833Z,-6
2018-09-21T09:45:03.832Z,-6
2018-09-21T09:50:03.839Z,-6
2018-09-21T09:55:03.836Z,-6
2018-09-21T10:00:03.845Z,-6
2018-09-21T10:05:03.851Z,-6
2018-09-21T10:10:03.852Z,-6
2018-09-21T10:15:03.844Z,-6
2018-09-21T10:20:03.870Z,-6
2018-09-21T10:25:03.852Z,-6
2018-09-21T10:30:03.860Z,-6
2018-09-21T10:35:03.873Z,-6
2018-09-21T10:40:04.237Z,-6
2018-09-21T10:45:03.868Z,-6
2018-09-21T10:50:03.880Z,-6
2018-09-21T10:55:03.873Z,-6
2018-09-21T11:00:03.876Z,-6
2018-09-21T11:05:03.902Z,4.11
2018-09-21T11:10:03.882Z,37.55
2018-09-21T11:15:03.881Z,119
2018-09-21T11:20:03.902Z,119
2018-09-21T11:25:03.887Z,119
2018-09-21T11:30:03.889Z,119
2018-09-21T11:35:03.906Z,119
2018-09-21T11:40:03.890Z,119
2018-09-21T11:45:03.916Z,119
2018-09-21T11:50:03.923Z,119
2018-09-21T11:55:03.907Z,119
2018-09-21T12:00:03.907Z,119
2018-09-21T12:05:04.248Z,119
2018-09-21T12:10:03.932Z,119
2018-09-21T12:15:03.920Z,119
2018-09-21T12:20:03.921Z,119
2018-09-21T12:25:03.939Z,119
2018-09-21T12:30:03.943Z,119
2018-09-21T12:35:03.935Z,119
2018-09-21T12:40:03.944Z,119
2018-09-21T12:45:03.931Z,119
2018-09-21T12:50:03.961Z,119
2018-09-21T12:55:04.254Z,119
2018-09-21T13:00:03.924Z,119
2018-09-21T13:05:03.952Z,119
2018-09-21T13:10:03.942Z,119
2018-09-21T13:15:03.953Z,119
2018-09-21T13:20:03.961Z,119
2018-09-21T13:25:03.957Z,119
2018-09-21T13:30:03.959Z,119
2018-09-21T13:35:03.972Z,119
2018-09-21T13:40:03.960Z,119
2018-09-21T13:45:03.964Z,119
2018-09-21T13:50:03.968Z,119
2018-09-21T13:55:03.969Z,119
2018-09-21T14:00:03.969Z,119
2018-09-21T14:05:03.981Z,119
2018-09-21T14:10:03.978Z,119
2018-09-21T14:15:03.977Z,119
2018-09-21T14:20:04.005Z,119
2018-09-21T14:25:03.985Z,119
2018-09-21T14:30:03.990Z,119
2018-09-21T14:35:04.014Z,119
2018-09-21T14:40:03.996Z,119
2018-09-21T14:45:03.997Z,119
2018-09-21T14:50:04.020Z,119
2018-09-21T14:55:04.011Z,119
2018-09-21T15:00:04.017Z,119
2018-09-21T15:05:04.019Z,119
2018-09-21T15:10:04.015Z,119
2018-09-21T15:15:04.054Z,119
2018-09-21T15:20:04.042Z,119
2018-09-21T15:25:04.017Z,119
2018-09-21T15:30:04.020Z,119
2018-09-21T15:35:04.038Z,119
2018-09-21T15:40:04.027Z,119
2018-09-21T15:45:04.030Z,119
2018-09-21T15:50:04.055Z,119
2018-09-21T15:55:04.035Z,119
2018-09-21T16:00:04.042Z,119
2018-09-21T16:05:04.067Z,119
2018-09-21T16:10:04.044Z,119
2018-09-21T16:15:04.044Z,119
2018-09-21T16:20:04.052Z,119
2018-09-21T16:25:04.053Z,90.16
2018-09-21T16:30:04.053Z,104.59
2018-09-21T16:35:04.069Z,106.45
2018-09-21T16:40:04.061Z,109.3
2018-09-21T16:45:04.244Z,88.69
2018-09-21T16:50:04.124Z,92.84
2018-09-21T16:55:04.070Z,112.4
2018-09-21T17:00:04.068Z,116.81
2018-09-21T17:05:04.094Z,108.47
2018-09-21T17:10:04.076Z,119
2018-09-21T17:15:04.082Z,119
2018-09-21T17:20:04.192Z,119
2018-09-21T17:25:04.081Z,119
2018-09-21T17:30:04.087Z,115.72
2018-09-21T17:35:04.109Z,119
2018-09-21T17:40:04.088Z,119
2018-09-21T17:45:04.090Z,119
2018-09-21T17:50:04.103Z,119
2018-09-21T17:55:04.105Z,119
2018-09-21T18:00:04.105Z,119
2018-09-21T18:05:04.126Z,119
2018-09-21T18:10:04.104Z,79.67
2018-09-21T18:15:04.115Z,55.87
2018-09-21T18:20:04.115Z,50.06
2018-09-21T18:25:04.116Z,43.76
2018-09-21T18:30:04.116Z,43.24
2018-09-21T18:35:04.140Z,20.32
2018-09-21T18:40:04.121Z,11.29
2018-09-21T18:45:04.125Z,2.63
2018-09-21T18:50:04.131Z,7.86
2018-09-21T18:55:04.132Z,17.08
2018-09-21T19:00:04.131Z,23.97
2018-09-21T19:05:04.144Z,25.16
2018-09-21T19:10:04.133Z,16.75
2018-09-21T19:15:04.146Z,20.35
2018-09-21T19:20:04.147Z,24.78
2018-09-21T19:25:04.179Z,28.01
2018-09-21T19:30:04.147Z,37.85
2018-09-21T19:35:04.154Z,36.24
2018-09-21T19:40:04.174Z,31.31
2018-09-21T19:45:04.470Z,31.23
2018-09-21T19:50:04.155Z,28.66
2018-09-21T19:55:04.169Z,23.25
2018-09-21T20:00:04.164Z,20.1
2018-09-21T20:05:04.164Z,12.44
2018-09-21T20:10:04.188Z,14.5
2018-09-21T20:15:04.178Z,36.75
2018-09-21T20:20:04.184Z,54.7
2018-09-21T20:25:04.269Z,83.87
2018-09-21T20:30:04.179Z,106.44
2018-09-21T20:35:04.188Z,119
2018-09-21T20:40:04.195Z,119
2018-09-21T20:45:04.187Z,119
2018-09-21T20:50:04.190Z,119
2018-09-21T20:55:04.213Z,119
2018-09-21T21:00:04.194Z,119
2018-09-21T21:05:04.199Z,119
2018-09-21T21:10:04.196Z,119
2018-09-21T21:15:04.209Z,119
2018-09-21T21:20:04.207Z,119
2018-09-21T21:25:04.205Z,119
2018-09-21T21:30:04.219Z,119
2018-09-21T21:35:04.225Z,119
2018-09-21T21:40:04.218Z,119
2018-09-21T21:45:04.218Z,119
2018-09-21T21:50:04.230Z,119
2018-09-21T21:55:04.222Z,119
2018-09-21T22:00:04.230Z,119
2018-09-21T22:05:04.323Z,119
2018-09-21T22:10:04.229Z,119
2018-09-21T22:15:04.238Z,119
2018-09-21T22:20:04.242Z,119
2018-09-21T22:25:04.240Z,119
2018-09-21T22:30:04.244Z,119
2018-09-21T22:35:04.267Z,119
2018-09-21T22:40:04.250Z,119
2018-09-21T22:45:04.323Z,119
2018-09-21T22:50:04.267Z,119
2018-09-21T22:55:04.263Z,119
2018-09-21T23:00:04.268Z,119
2018-09-21T23:05:04.272Z,119
2018-09-21T23:10:04.265Z,119
2018-09-21T23:15:04.266Z,119
2018-09-21T23:20:04.292Z,119
2018-09-21T23:25:04.274Z,119
2018-09-21T23:30:04.279Z,119
2018-09-21T23:35:04.290Z,119
2018-09-21T23:40:04.278Z,119
2018-09-21T23:45:04.297Z,119
2018-09-21T23:50:04.301Z,119
2018-09-21T23:55:04.288Z,119
